Latest Weather Observations for Maroochydore

IDQ60901

Issued at 10:41 pm EST Wednesday 4 March 2015 (issued every 10 minutes, with the page automatically refreshed every 10 minutes)

About weather observations | Map of Brisbane area stations | Latest observations for Brisbane area | Other Formats
Station Details ID: 040861 Name: SUNSHINE COAST AIRPORT Lat: -26.60 Lon: 153.09 Height: 3.3 m
Data from the previous 72 hours. | See also: Recent months at Maroochydore
Date/Time
EST
Tmp

°C
App
Tmp
°C
Dew
Point
°C
Rel
Hum
%
Delta-T

°C
Wind Press
QNH
hPa
Press
MSL
hPa
Rain
since
9 am
mm
Dir
 
Spd
km/h
Gust
km/h
Spd
kts
Gust
kts
04/10:30pm 21.4 23.0 19.9 91 1.0 NW 11 13 6 7 1012.2 - 0.0
04/10:00pm 21.4 23.5 19.3 88 1.3 WNW 7 9 4 5 1012.4 - 0.0
04/09:00pm 22.0 24.1 19.4 85 1.7 NW 7 9 4 5 1012.5 1012.5 0.0
04/08:30pm 22.6 24.4 19.6 83 1.9 NW 9 11 5 6 1012.5 - 0.0
04/08:00pm 23.1 24.9 19.5 80 2.3 N 9 11 5 6 1012.3 - 0.0
04/07:30pm 24.2 25.0 19.9 77 2.8 N 15 19 8 10 1011.9 - 0.0
04/07:00pm 24.1 25.2 19.6 76 2.9 N 13 17 7 9 1011.8 - 0.0
04/06:30pm 24.4 25.1 19.7 75 3.0 N 15 17 8 9 1011.6 - 0.0
04/06:00pm 25.3 25.9 19.4 70 3.8 NNE 15 19 8 10 1011.5 1011.5 0.0
04/05:30pm 26.5 27.7 19.9 67 4.3 NE 13 19 7 10 1011.4 - 0.0
04/05:00pm 27.2 28.1 19.3 62 5.1 ENE 13 17 7 9 1011.1 - 0.0
04/04:30pm 27.8 28.3 19.3 60 5.5 ENE 15 19 8 10 1011.2 - 0.0
04/04:00pm 28.1 28.4 19.6 60 5.5 ENE 17 20 9 11 1011.1 - 0.0
04/03:30pm 28.4 29.1 19.6 59 5.7 ENE 15 20 8 11 1011.2 - 0.0
04/03:00pm 28.4 28.6 19.3 57 5.9 ENE 17 20 9 11 1011.3 1011.3 0.0
04/02:30pm 28.6 28.9 19.5 58 5.9 ENE 17 22 9 12 1011.6 - 0.0
04/02:00pm 29.1 29.4 19.7 57 6.1 ENE 17 20 9 11 1012.0 - 0.0
04/01:30pm 28.8 29.3 20.0 59 5.8 ENE 17 22 9 12 1012.5 - 0.0
04/01:00pm 28.7 29.1 19.1 56 6.2 E 15 22 8 12 1012.9 - 0.0
04/12:30pm 28.8 29.1 19.7 58 5.9 E 17 20 9 11 1013.3 - 0.0
04/12:00pm 28.9 29.0 19.2 55 6.3 E 17 20 9 11 1013.5 1013.5 0.0
04/11:30am 28.2 28.4 18.6 56 6.2 E 15 20 8 11 1013.9 - 0.0
04/11:00am 28.5 29.1 18.6 55 6.4 E 13 17 7 9 1014.2 - 0.0
04/10:30am 28.3 28.7 18.1 54 6.5 E 13 17 7 9 1014.6 - 0.0
04/10:00am 28.3 28.4 17.5 52 6.8 E 13 17 7 9 1014.8 - 0.0
04/09:30am 28.2 28.9 18.9 57 6.0 ESE 13 19 7 10 1014.8 - 0.0
04/09:00am 27.4 27.7 17.8 55 6.1 ESE 13 17 7 9 1014.7 1014.7 0.0
04/08:30am 26.6 28.3 18.5 61 5.2 SSE 7 13 4 7 1014.5 - 0.0
04/07:30am 22.4 24.8 20.1 87 1.5 WSW 7 11 4 6 1014.1 - 0.0
04/07:00am 20.7 22.9 19.7 94 0.6 W 7 9 4 5 1013.9 - 0.0
04/06:30am 19.3 21.0 18.5 95 0.5 WSW 7 9 4 5 1013.6 - 0.0
04/05:30am 18.0 19.1 17.0 94 0.6 WNW 7 9 4 5 1012.9 - 0.0
04/05:00am 18.0 19.0 16.9 93 0.7 WNW 7 9 4 5 1012.9 - 0.0
04/04:30am 18.1 20.1 16.9 93 0.7 WNW 2 9 1 5 1012.9 - 0.0
04/03:30am 18.6 21.2 17.4 93 0.7 CALM 0 0 0 0 1012.8 - 0.0
04/03:00am 18.5 19.6 17.2 92 0.8 WNW 7 7 4 4 1013.2 1013.2 0.0
04/02:30am 18.7 19.9 17.4 92 0.8 W 7 9 4 5 1013.5 - 0.0
04/02:00am 18.9 20.2 17.6 92 0.8 WNW 7 9 4 5 1013.9 - 0.0
04/01:30am 19.4 21.1 18.1 92 0.8 W 6 7 3 4 1014.0 - 0.0
04/01:00am 19.8 21.4 18.3 91 0.9 W 7 9 4 5 1014.4 - 0.0
04/12:30am 20.2 22.0 18.7 91 0.9 WSW 7 9 4 5 1014.8 - 0.0
 
Date/Time
EST
Tmp

°C
App
Tmp
°C
Dew
Point
°C
Rel
Hum
%
Delta-T

°C
Wind Press
QNH
hPa
Press
MSL
hPa
Rain
since
9 am
mm
Dir
 
Spd
km/h
Gust
km/h
Spd
kts
Gust
kts
03/11:30pm 20.9 22.5 19.2 90 1.1 WSW 9 11 5 6 1015.3 - 0.0
03/11:00pm 21.2 22.8 19.1 88 1.3 WSW 9 13 5 7 1015.4 - 0.0
03/10:30pm 21.1 22.6 18.9 87 1.4 W 9 11 5 6 1015.3 - 0.0
03/10:00pm 21.4 23.7 18.6 84 1.8 WSW 4 11 2 6 1015.3 - 0.0
03/09:30pm 22.0 23.3 18.4 80 2.3 WSW 9 11 5 6 1015.3 - 0.0
03/09:00pm 24.5 25.2 18.9 71 3.6 SE 13 19 7 10 1015.3 1015.3 0.0
03/08:30pm 24.6 25.0 19.0 71 3.6 SE 15 20 8 11 1014.9 - 0.0
03/08:00pm 24.9 25.2 18.8 69 3.9 ESE 15 20 8 11 1014.6 - 0.0
03/07:30pm 25.0 25.1 18.4 66 4.2 ESE 15 20 8 11 1014.2 - 0.0
03/07:00pm 25.3 25.3 18.0 64 4.6 ESE 15 19 8 10 1014.0 - 0.0
03/06:30pm 25.2 25.5 17.9 64 4.6 ESE 13 19 7 10 1013.9 - 0.0
03/06:00pm 25.7 25.1 17.6 61 5.1 ESE 17 22 9 12 1013.7 1013.7 0.0
03/05:30pm 26.3 25.0 16.8 56 5.9 ESE 19 24 10 13 1013.6 - 0.0
03/05:00pm 26.8 26.0 18.1 59 5.5 ESE 19 24 10 13 1013.4 - 0.0
03/04:30pm 27.1 26.2 18.1 58 5.7 ESE 20 26 11 14 1013.2 - 0.0
03/04:00pm 27.8 27.0 18.5 57 5.9 ESE 20 26 11 14 1013.2 - 0.0
03/03:30pm 28.0 26.8 18.4 56 6.1 ESE 22 28 12 15 1013.1 - 0.0
03/03:00pm 28.3 27.5 18.4 55 6.3 ESE 20 30 11 16 1013.0 1013.0 0.0
03/02:30pm 28.8 27.8 18.9 55 6.4 ESE 22 32 12 17 1013.3 - 0.0
03/02:00pm 28.7 26.8 17.6 51 7.0 ESE 24 30 13 16 1013.5 - 0.0
03/01:30pm 29.1 28.1 18.8 53 6.6 ESE 22 30 12 16 1013.9 - 0.0
03/01:00pm 29.0 27.3 17.2 49 7.4 ESE 22 28 12 15 1014.0 - 0.0
03/12:30pm 29.3 28.2 18.7 52 6.8 SE 22 30 12 16 1014.4 - 0.0
03/12:00pm 28.7 27.2 17.6 51 7.0 SE 22 30 12 16 1014.9 1014.9 0.0
03/11:30am 29.2 28.4 19.2 54 6.5 SE 22 30 12 16 1015.1 - 0.0
03/11:00am 28.8 27.7 18.6 54 6.6 SE 22 24 12 13 1015.4 - 0.0
03/10:30am 29.1 28.9 20.5 59 5.7 SSE 22 32 12 17 1015.5 - 0.0
03/10:00am 28.8 28.2 19.7 58 5.9 SSE 22 30 12 16 1015.7 - 0.0
03/09:30am 29.4 30.0 22.1 65 4.9 SSE 22 28 12 15 1015.6 - 0.0
03/09:00am 27.9 28.2 20.7 65 4.8 SSE 20 26 11 14 1015.4 1015.4 0.0
03/08:30am 27.0 28.2 21.5 72 3.7 S 17 26 9 14 1015.2 - 0.0
03/08:00am 25.7 26.3 20.3 72 3.5 S 17 24 9 13 1015.0 - 0.0
03/07:30am 24.4 25.1 20.5 79 2.5 S 17 22 9 12 1014.8 - 0.0
03/07:00am 23.3 23.9 20.2 83 2.0 S 17 20 9 11 1014.5 - 0.0
03/06:30am 22.2 24.4 20.3 89 1.2 SW 9 15 5 8 1014.4 - 0.0
03/06:00am 21.8 23.9 20.1 90 1.1 SW 9 13 5 7 1014.2 1014.2 0.0
03/05:30am 22.2 23.5 20.1 88 1.4 SSW 13 15 7 8 1014.1 - 0.0
03/05:00am 22.7 24.1 20.4 87 1.5 SSW 13 19 7 10 1013.8 - 0.0
03/04:30am 22.9 23.7 20.6 87 1.5 SSW 17 26 9 14 1013.6 - 0.0
03/04:00am 22.9 24.2 20.8 88 1.4 S 15 20 8 11 1013.3 - 0.0
03/03:30am 22.8 23.9 20.5 87 1.5 S 15 20 8 11 1013.2 - 0.0
03/03:00am 23.0 23.8 20.7 87 1.5 S 17 20 9 11 1013.2 1013.2 0.0
03/02:30am 23.1 23.9 20.6 86 1.6 S 17 22 9 12 1013.1 - 0.0
03/02:00am 23.4 23.8 20.7 85 1.8 S 19 24 10 13 1013.3 - 0.0
03/01:30am 23.6 24.5 20.9 85 1.8 S 17 22 9 12 1013.6 - 0.0
03/01:00am 23.9 24.7 20.6 82 2.2 S 17 20 9 11 1014.0 - 0.0
03/12:30am 25.2 25.1 20.7 76 2.9 SSE 22 33 12 18 1014.2 - 0.0
03/12:00am 24.6 23.3 20.7 79 2.5 ESE 28 37 15 20 1014.4 1014.4 0.0
 
Date/Time
EST
Tmp

°C
App
Tmp
°C
Dew
Point
°C
Rel
Hum
%
Delta-T

°C
Wind Press
QNH
hPa
Press
MSL
hPa
Rain
since
9 am
mm
Dir
 
Spd
km/h
Gust
km/h
Spd
kts
Gust
kts
02/11:30pm 25.3 25.0 20.3 74 3.3 SSE 22 32 12 17 1014.5 - 0.0
02/11:00pm 25.2 25.2 20.2 74 3.3 SSE 20 28 11 15 1014.8 - 0.0
02/10:30pm 25.6 25.0 20.4 73 3.4 SE 24 33 13 18 1014.7 - 0.0
02/10:00pm 25.5 25.4 20.7 75 3.1 SSE 22 32 12 17 1014.7 - 0.0
02/09:30pm 25.4 24.8 20.4 74 3.3 SSE 24 30 13 16 1014.7 - 0.0
02/09:00pm 25.5 24.9 20.5 74 3.3 SSE 24 32 13 17 1014.7 1014.7 0.0
02/08:30pm 25.7 24.2 20.3 72 3.5 SSE 28 37 15 20 1014.3 - 0.0
02/08:00pm 25.4 24.7 21.1 77 2.8 SSE 26 37 14 20 1014.1 - 0.0
02/07:30pm 25.2 25.8 21.1 78 2.7 SSE 19 24 10 13 1013.7 - 0.0
02/07:00pm 25.0 24.0 20.5 76 2.9 SSE 26 37 14 20 1013.2 - 0.0
02/06:30pm 25.5 23.9 20.7 75 3.1 SSE 30 37 16 20 1012.8 - 0.0
02/06:00pm 25.8 24.5 20.6 73 3.4 SSE 28 37 15 20 1012.6 1012.6 0.0
02/05:30pm 26.4 24.5 20.9 72 3.6 SE 32 39 17 21 1012.1 - 0.0
02/05:00pm 26.7 26.8 21.9 75 3.2 SE 24 35 13 19 1011.8 - 0.0
02/04:30pm 27.0 27.0 21.7 73 3.5 SE 24 33 13 18 1011.6 - 0.0
02/04:00pm 28.0 26.8 21.5 67 4.3 SE 30 41 16 22 1011.3 - 0.0
02/03:30pm 28.1 26.4 21.4 67 4.5 SE 32 46 17 25 1011.1 - 0.0
02/03:00pm 28.3 26.2 21.6 67 4.5 SE 35 44 19 24 1011.2 1011.2 0.0
02/02:30pm 28.8 27.3 22.1 67 4.5 SE 33 43 18 23 1011.3 - 0.0
02/02:00pm 28.8 26.8 21.8 66 4.7 SE 35 44 19 24 1011.6 - 0.0
02/01:30pm 28.9 27.7 22.2 67 4.5 SE 32 43 17 23 1011.7 - 0.0
02/01:00pm 29.0 27.5 21.7 64 4.9 SE 32 41 17 22 1012.0 - 0.0
02/12:30pm 29.5 28.4 22.5 66 4.8 SE 32 46 17 25 1012.0 - 0.0
02/12:00pm 29.4 28.3 22.4 66 4.8 SE 32 41 17 22 1012.1 1012.1 0.0
02/11:30am 30.4 30.7 23.6 67 4.7 SE 28 37 15 20 1012.3 - 0.0
02/11:00am 29.7 30.0 22.2 64 5.1 SE 24 30 13 16 1012.5 - 0.0
02/10:30am 29.5 31.0 23.0 68 4.4 SE 20 26 11 14 1012.5 - 0.0
02/10:00am 28.7 29.2 21.2 64 5.0 ESE 20 24 11 13 1012.5 - 0.0
02/09:30am 29.7 32.4 22.2 64 5.1 S 11 17 6 9 1012.7 - 0.0
02/09:00am 28.6 30.5 21.4 65 4.8 SSW 13 19 7 10 1012.4 1012.4 0.0
02/08:30am 27.6 30.0 21.6 70 4.0 SSW 11 15 6 8 1012.4 - 0.0
02/08:00am 26.3 28.8 21.7 76 3.1 SW 11 15 6 8 1012.3 - 0.0
02/07:30am 25.0 26.8 21.1 79 2.6 SSW 13 15 7 8 1012.1 - 0.0
02/07:00am 23.4 25.8 21.5 89 1.3 SSW 11 15 6 8 1012.0 - 0.0
02/06:30am 22.3 25.2 21.1 93 0.8 SSW 7 9 4 5 1011.7 - 0.0
02/06:00am 21.5 24.3 20.5 94 0.6 SW 6 7 3 4 1011.1 1011.1 0.0
02/05:30am 21.2 23.8 20.0 93 0.8 WSW 6 7 3 4 1010.7 - 0.0
02/05:00am 21.0 24.1 19.6 92 0.9 WSW 2 6 1 3 1010.2 - 0.0
02/04:30am 21.7 24.5 20.5 93 0.8 SW 6 7 3 4 1009.9 - 0.0
02/04:00am 21.5 23.9 20.1 92 0.9 W 7 9 4 5 1009.6 - 0.0
02/03:30am 21.9 24.6 20.7 93 0.8 WNW 7 9 4 5 1009.5 - 0.0
02/03:00am 21.9 24.2 20.7 93 0.8 W 9 9 5 5 1009.4 1009.4 0.0
02/02:30am 21.9 24.6 20.7 93 0.8 W 7 9 4 5 1009.6 - 0.0
02/02:00am 21.7 25.2 20.3 92 0.9 W 2 11 1 6 1009.9 - 0.0
02/01:30am 21.9 26.0 20.7 93 0.8 CALM 0 0 0 0 1010.2 - 0.0
02/01:00am 21.8 25.7 20.3 91 1.0 CALM 0 0 0 0 1010.0 - 0.0
02/12:30am 21.7 24.8 20.2 91 1.0 W 4 6 2 3 1009.9 - 0.0
02/12:00am 21.9 24.1 20.5 92 0.9 WNW 9 11 5 6 1009.8 1009.8 0.0
 
Date/Time
EST
Tmp

°C
App
Tmp
°C
Dew
Point
°C
Rel
Hum
%
Delta-T

°C
Wind Press
QNH
hPa
Press
MSL
hPa
Rain
since
9 am
mm
Dir
 
Spd
km/h
Gust
km/h
Spd
kts
Gust
kts
01/11:30pm 22.2 24.5 20.7 91 1.0 W 9 11 5 6 1009.9 - 0.0
01/11:00pm 22.3 24.5 20.4 89 1.2 WNW 9 11 5 6 1009.7 - 0.0

Latest Capital City Observations: Canberra | Sydney | Melbourne | Brisbane | Adelaide | Perth | Hobart | Darwin

Other Formats:

Comma delimited format used in spreadsheet applications
http://www.bom.gov.au/fwo/IDQ60901/IDQ60901.94569.axf

JavaScript Object Notation format (JSON) in row-major order
http://www.bom.gov.au/fwo/IDQ60901/IDQ60901.94569.json